sensor_id;sensor_type;location;lat;lon;timestamp;temperature;humidity
17845;DHT22;9047;53.486;10.218;2024-01-06T00:02:05;0.60;99.90
17845;DHT22;9047;53.486;10.218;2024-01-06T00:04:32;0.60;99.90
17845;DHT22;9047;53.486;10.218;2024-01-06T00:06:59;0.60;99.90
17845;DHT22;9047;53.486;10.218;2024-01-06T00:09:26;0.60;99.90
17845;DHT22;9047;53.486;10.218;2024-01-06T00:11:55;0.60;99.90
17845;DHT22;9047;53.486;10.218;2024-01-06T00:14:22;0.50;99.90
17845;DHT22;9047;53.486;10.218;2024-01-06T00:16:49;0.60;99.90
17845;DHT22;9047;53.486;10.218;2024-01-06T00:19:17;0.60;99.90
17845;DHT22;9047;53.486;10.218;2024-01-06T00:21:45;0.60;99.90
17845;DHT22;9047;53.486;10.218;2024-01-06T00:24:11;0.60;99.90
17845;DHT22;9047;53.486;10.218;2024-01-06T00:26:40;0.60;99.90
17845;DHT22;9047;53.486;10.218;2024-01-06T00:29:06;0.50;99.90
17845;DHT22;9047;53.486;10.218;2024-01-06T00:31:33;0.60;99.90
17845;DHT22;9047;53.486;10.218;2024-01-06T00:34:00;0.60;99.90
17845;DHT22;9047;53.486;10.218;2024-01-06T00:36:30;0.60;99.90
17845;DHT22;9047;53.486;10.218;2024-01-06T00:38:57;0.60;99.90
17845;DHT22;9047;53.486;10.218;2024-01-06T00:41:24;0.60;99.90
17845;DHT22;9047;53.486;10.218;2024-01-06T00:43:51;0.60;99.90
17845;DHT22;9047;53.486;10.218;2024-01-06T00:46:18;0.60;99.90
17845;DHT22;9047;53.486;10.218;2024-01-06T00:48:45;0.60;99.90
17845;DHT22;9047;53.486;10.218;2024-01-06T00:51:12;0.60;99.90
17845;DHT22;9047;53.486;10.218;2024-01-06T00:53:40;0.60;99.90
17845;DHT22;9047;53.486;10.218;2024-01-06T00:56:07;0.60;99.90
17845;DHT22;9047;53.486;10.218;2024-01-06T00:58:35;0.60;99.90
17845;DHT22;9047;53.486;10.218;2024-01-06T01:01:02;0.60;99.90
17845;DHT22;9047;53.486;10.218;2024-01-06T01:03:29;0.60;99.90
17845;DHT22;9047;53.486;10.218;2024-01-06T01:05:56;0.60;99.90
17845;DHT22;9047;53.486;10.218;2024-01-06T01:08:23;0.60;99.90
17845;DHT22;9047;53.486;10.218;2024-01-06T01:10:51;0.60;99.90
17845;DHT22;9047;53.486;10.218;2024-01-06T01:13:20;0.60;99.90
17845;DHT22;9047;53.486;10.218;2024-01-06T01:15:47;0.60;99.90
17845;DHT22;9047;53.486;10.218;2024-01-06T01:18:13;0.60;99.90
17845;DHT22;9047;53.486;10.218;2024-01-06T01:20:40;0.60;99.90
17845;DHT22;9047;53.486;10.218;2024-01-06T01:23:08;0.60;99.90
17845;DHT22;9047;53.486;10.218;2024-01-06T01:25:35;0.60;99.90
17845;DHT22;9047;53.486;10.218;2024-01-06T01:28:04;0.60;99.90
17845;DHT22;9047;53.486;10.218;2024-01-06T01:30:32;0.60;99.90
17845;DHT22;9047;53.486;10.218;2024-01-06T01:32:59;0.60;99.90
17845;DHT22;9047;53.486;10.218;2024-01-06T01:35:26;0.60;99.90
17845;DHT22;9047;53.486;10.218;2024-01-06T01:37:53;0.60;99.90
17845;DHT22;9047;53.486;10.218;2024-01-06T01:40:20;0.60;99.90
17845;DHT22;9047;53.486;10.218;2024-01-06T01:42:47;0.60;99.90
17845;DHT22;9047;53.486;10.218;2024-01-06T01:45:15;0.60;99.90
17845;DHT22;9047;53.486;10.218;2024-01-06T01:47:42;0.60;99.90
17845;DHT22;9047;53.486;10.218;2024-01-06T01:50:12;0.60;99.90
17845;DHT22;9047;53.486;10.218;2024-01-06T01:52:40;0.60;99.90
17845;DHT22;9047;53.486;10.218;2024-01-06T01:55:08;0.60;99.90
17845;DHT22;9047;53.486;10.218;2024-01-06T01:57:35;0.60;99.90
17845;DHT22;9047;53.486;10.218;2024-01-06T02:00:03;0.60;99.90
17845;DHT22;9047;53.486;10.218;2024-01-06T02:02:31;0.60;99.90
17845;DHT22;9047;53.486;10.218;2024-01-06T02:04:59;0.60;99.90
17845;DHT22;9047;53.486;10.218;2024-01-06T02:07:26;0.60;99.90
17845;DHT22;9047;53.486;10.218;2024-01-06T02:09:54;0.60;99.90
17845;DHT22;9047;53.486;10.218;2024-01-06T02:12:21;0.60;99.90
17845;DHT22;9047;53.486;10.218;2024-01-06T02:14:49;0.60;99.90
17845;DHT22;9047;53.486;10.218;2024-01-06T02:17:16;0.60;99.90
17845;DHT22;9047;53.486;10.218;2024-01-06T02:19:45;0.60;99.90
17845;DHT22;9047;53.486;10.218;2024-01-06T02:22:13;0.60;99.90
17845;DHT22;9047;53.486;10.218;2024-01-06T02:24:40;0.60;99.90
17845;DHT22;9047;53.486;10.218;2024-01-06T02:27:07;0.60;99.90
17845;DHT22;9047;53.486;10.218;2024-01-06T02:29:35;0.70;99.90
17845;DHT22;9047;53.486;10.218;2024-01-06T02:32:02;0.60;99.90
17845;DHT22;9047;53.486;10.218;2024-01-06T02:34:29;0.60;99.90
17845;DHT22;9047;53.486;10.218;2024-01-06T02:36:56;0.60;99.90
17845;DHT22;9047;53.486;10.218;2024-01-06T02:39:24;0.60;99.90
17845;DHT22;9047;53.486;10.218;2024-01-06T02:41:51;0.70;99.90
17845;DHT22;9047;53.486;10.218;2024-01-06T02:44:18;0.70;99.90
17845;DHT22;9047;53.486;10.218;2024-01-06T02:46:45;0.70;99.90
17845;DHT22;9047;53.486;10.218;2024-01-06T02:49:12;0.70;99.90
17845;DHT22;9047;53.486;10.218;2024-01-06T02:51:38;0.70;99.90
17845;DHT22;9047;53.486;10.218;2024-01-06T02:54:05;0.60;99.90
17845;DHT22;9047;53.486;10.218;2024-01-06T02:56:33;0.60;99.90
17845;DHT22;9047;53.486;10.218;2024-01-06T02:59:00;0.60;99.90
17845;DHT22;9047;53.486;10.218;2024-01-06T03:01:29;0.60;99.90
17845;DHT22;9047;53.486;10.218;2024-01-06T03:03:55;0.60;99.90
17845;DHT22;9047;53.486;10.218;2024-01-06T03:06:22;0.60;99.90
17845;DHT22;9047;53.486;10.218;2024-01-06T03:08:49;0.60;99.90
17845;DHT22;9047;53.486;10.218;2024-01-06T03:11:16;0.60;99.90
17845;DHT22;9047;53.486;10.218;2024-01-06T03:13:44;0.60;99.90
17845;DHT22;9047;53.486;10.218;2024-01-06T03:16:11;0.60;99.90
17845;DHT22;9047;53.486;10.218;2024-01-06T03:18:38;0.60;99.90
17845;DHT22;9047;53.486;10.218;2024-01-06T03:21:05;0.60;99.90
17845;DHT22;9047;53.486;10.218;2024-01-06T03:23:32;0.60;99.90
17845;DHT22;9047;53.486;10.218;2024-01-06T03:26:05;0.60;99.90
17845;DHT22;9047;53.486;10.218;2024-01-06T03:28:32;0.50;99.90
17845;DHT22;9047;53.486;10.218;2024-01-06T03:31:00;0.50;99.90
17845;DHT22;9047;53.486;10.218;2024-01-06T03:33:27;0.50;99.90
17845;DHT22;9047;53.486;10.218;2024-01-06T03:35:55;0.50;99.90
17845;DHT22;9047;53.486;10.218;2024-01-06T03:38:22;0.50;99.90
17845;DHT22;9047;53.486;10.218;2024-01-06T03:40:49;0.50;99.90
17845;DHT22;9047;53.486;10.218;2024-01-06T03:43:16;0.50;99.90
17845;DHT22;9047;53.486;10.218;2024-01-06T03:45:43;0.50;99.90
17845;DHT22;9047;53.486;10.218;2024-01-06T03:48:12;0.50;99.90
17845;DHT22;9047;53.486;10.218;2024-01-06T03:50:38;0.50;99.90
17845;DHT22;9047;53.486;10.218;2024-01-06T03:53:07;0.50;99.90
17845;DHT22;9047;53.486;10.218;2024-01-06T03:55:36;0.50;99.90
17845;DHT22;9047;53.486;10.218;2024-01-06T03:58:03;0.50;99.90
17845;DHT22;9047;53.486;10.218;2024-01-06T04:00:30;0.50;99.90
17845;DHT22;9047;53.486;10.218;2024-01-06T04:02:57;0.50;99.90
17845;DHT22;9047;53.486;10.218;2024-01-06T04:05:25;0.50;99.90
17845;DHT22;9047;53.486;10.218;2024-01-06T04:07:52;0.50;99.90
17845;DHT22;9047;53.486;10.218;2024-01-06T04:10:19;0.50;99.90
17845;DHT22;9047;53.486;10.218;2024-01-06T04:12:47;0.50;99.90
17845;DHT22;9047;53.486;10.218;2024-01-06T04:15:14;0.50;99.90
17845;DHT22;9047;53.486;10.218;2024-01-06T04:17:42;0.50;99.90
17845;DHT22;9047;53.486;10.218;2024-01-06T04:20:10;0.40;99.90
17845;DHT22;9047;53.486;10.218;2024-01-06T04:22:40;0.40;99.90
17845;DHT22;9047;53.486;10.218;2024-01-06T04:25:10;0.40;99.90
17845;DHT22;9047;53.486;10.218;2024-01-06T04:27:37;0.50;99.90
17845;DHT22;9047;53.486;10.218;2024-01-06T04:30:05;0.50;99.90
17845;DHT22;9047;53.486;10.218;2024-01-06T04:32:32;0.40;99.90
17845;DHT22;9047;53.486;10.218;2024-01-06T04:34:59;0.40;99.90
17845;DHT22;9047;53.486;10.218;2024-01-06T04:37:27;0.40;99.90
17845;DHT22;9047;53.486;10.218;2024-01-06T04:39:55;0.40;99.90
17845;DHT22;9047;53.486;10.218;2024-01-06T04:42:22;0.40;99.90
17845;DHT22;9047;53.486;10.218;2024-01-06T04:44:49;0.40;99.90
17845;DHT22;9047;53.486;10.218;2024-01-06T04:47:16;0.40;99.90
17845;DHT22;9047;53.486;10.218;2024-01-06T04:49:43;0.40;99.90
17845;DHT22;9047;53.486;10.218;2024-01-06T04:52:11;0.40;99.90
17845;DHT22;9047;53.486;10.218;2024-01-06T04:54:38;0.40;99.90
17845;DHT22;9047;53.486;10.218;2024-01-06T04:57:06;0.40;99.90
17845;DHT22;9047;53.486;10.218;2024-01-06T04:59:33;0.40;99.90
17845;DHT22;9047;53.486;10.218;2024-01-06T05:02:00;0.40;99.90
17845;DHT22;9047;53.486;10.218;2024-01-06T05:04:27;0.40;99.90
17845;DHT22;9047;53.486;10.218;2024-01-06T05:06:56;0.40;99.90
17845;DHT22;9047;53.486;10.218;2024-01-06T05:09:23;0.40;99.90
17845;DHT22;9047;53.486;10.218;2024-01-06T05:11:49;0.40;99.90
17845;DHT22;9047;53.486;10.218;2024-01-06T05:14:18;0.40;99.90
17845;DHT22;9047;53.486;10.218;2024-01-06T05:16:51;0.40;99.90
17845;DHT22;9047;53.486;10.218;2024-01-06T05:19:18;0.40;99.90
17845;DHT22;9047;53.486;10.218;2024-01-06T05:21:46;0.50;99.90
17845;DHT22;9047;53.486;10.218;2024-01-06T05:24:13;0.50;99.90
17845;DHT22;9047;53.486;10.218;2024-01-06T05:26:40;0.50;99.90
17845;DHT22;9047;53.486;10.218;2024-01-06T05:29:07;0.50;99.90
17845;DHT22;9047;53.486;10.218;2024-01-06T05:31:37;0.50;99.90
17845;DHT22;9047;53.486;10.218;2024-01-06T05:34:04;0.50;99.90
17845;DHT22;9047;53.486;10.218;2024-01-06T05:36:32;0.40;99.90
17845;DHT22;9047;53.486;10.218;2024-01-06T05:38:59;0.40;99.90
17845;DHT22;9047;53.486;10.218;2024-01-06T05:41:26;0.40;99.90
17845;DHT22;9047;53.486;10.218;2024-01-06T05:43:53;0.40;99.90
17845;DHT22;9047;53.486;10.218;2024-01-06T05:46:24;0.40;99.90
17845;DHT22;9047;53.486;10.218;2024-01-06T05:48:52;0.40;99.90
17845;DHT22;9047;53.486;10.218;2024-01-06T05:51:19;0.40;99.90
17845;DHT22;9047;53.486;10.218;2024-01-06T05:53:45;0.40;99.90
17845;DHT22;9047;53.486;10.218;2024-01-06T05:56:22;0.40;99.90
17845;DHT22;9047;53.486;10.218;2024-01-06T05:58:50;0.40;99.90
17845;DHT22;9047;53.486;10.218;2024-01-06T06:01:17;0.40;99.90
17845;DHT22;9047;53.486;10.218;2024-01-06T06:03:44;0.40;99.90
17845;DHT22;9047;53.486;10.218;2024-01-06T06:06:12;0.40;99.90
17845;DHT22;9047;53.486;10.218;2024-01-06T06:08:40;0.30;99.90
17845;DHT22;9047;53.486;10.218;2024-01-06T06:11:07;0.30;99.90
17845;DHT22;9047;53.486;10.218;2024-01-06T06:13:36;0.30;99.90
17845;DHT22;9047;53.486;10.218;2024-01-06T06:16:04;0.30;99.90
17845;DHT22;9047;53.486;10.218;2024-01-06T06:18:31;0.30;99.90
17845;DHT22;9047;53.486;10.218;2024-01-06T06:20:59;0.30;99.90
17845;DHT22;9047;53.486;10.218;2024-01-06T06:23:27;0.40;99.90
17845;DHT22;9047;53.486;10.218;2024-01-06T06:25:54;0.30;99.90
17845;DHT22;9047;53.486;10.218;2024-01-06T06:28:21;0.40;99.90
17845;DHT22;9047;53.486;10.218;2024-01-06T06:30:49;0.30;99.90
17845;DHT22;9047;53.486;10.218;2024-01-06T06:33:16;0.30;99.90
17845;DHT22;9047;53.486;10.218;2024-01-06T06:35:43;0.30;99.90
17845;DHT22;9047;53.486;10.218;2024-01-06T06:38:12;0.30;99.90
17845;DHT22;9047;53.486;10.218;2024-01-06T06:40:40;0.30;99.90
17845;DHT22;9047;53.486;10.218;2024-01-06T06:43:07;0.30;99.90
17845;DHT22;9047;53.486;10.218;2024-01-06T06:45:34;0.30;99.90
17845;DHT22;9047;53.486;10.218;2024-01-06T06:48:01;0.30;99.90
17845;DHT22;9047;53.486;10.218;2024-01-06T06:50:28;0.30;99.90
17845;DHT22;9047;53.486;10.218;2024-01-06T06:52:55;0.30;99.90
17845;DHT22;9047;53.486;10.218;2024-01-06T06:55:22;0.30;99.90
17845;DHT22;9047;53.486;10.218;2024-01-06T06:57:50;0.30;99.90
17845;DHT22;9047;53.486;10.218;2024-01-06T07:00:17;0.30;99.90
17845;DHT22;9047;53.486;10.218;2024-01-06T07:02:44;0.30;99.90
17845;DHT22;9047;53.486;10.218;2024-01-06T07:05:11;0.30;99.90
17845;DHT22;9047;53.486;10.218;2024-01-06T07:07:38;0.30;99.90
17845;DHT22;9047;53.486;10.218;2024-01-06T07:10:06;0.30;99.90
17845;DHT22;9047;53.486;10.218;2024-01-06T07:12:33;0.30;99.90
17845;DHT22;9047;53.486;10.218;2024-01-06T07:15:01;0.30;99.90
17845;DHT22;9047;53.486;10.218;2024-01-06T07:17:28;0.40;99.90
17845;DHT22;9047;53.486;10.218;2024-01-06T07:19:56;0.30;99.90
17845;DHT22;9047;53.486;10.218;2024-01-06T07:22:23;0.30;99.90
17845;DHT22;9047;53.486;10.218;2024-01-06T07:24:50;0.30;99.90
17845;DHT22;9047;53.486;10.218;2024-01-06T07:27:17;0.20;99.90
17845;DHT22;9047;53.486;10.218;2024-01-06T07:29:45;0.20;99.90
17845;DHT22;9047;53.486;10.218;2024-01-06T07:32:14;0.30;99.90
17845;DHT22;9047;53.486;10.218;2024-01-06T07:34:41;0.30;99.90
17845;DHT22;9047;53.486;10.218;2024-01-06T07:37:08;0.30;99.90
17845;DHT22;9047;53.486;10.218;2024-01-06T07:39:35;0.30;99.90
17845;DHT22;9047;53.486;10.218;2024-01-06T07:42:02;0.30;99.90
17845;DHT22;9047;53.486;10.218;2024-01-06T07:44:29;0.30;99.90
17845;DHT22;9047;53.486;10.218;2024-01-06T07:46:56;0.30;99.90
17845;DHT22;9047;53.486;10.218;2024-01-06T07:49:24;0.30;99.90
17845;DHT22;9047;53.486;10.218;2024-01-06T07:51:51;0.30;99.90
17845;DHT22;9047;53.486;10.218;2024-01-06T07:54:19;0.30;99.90
17845;DHT22;9047;53.486;10.218;2024-01-06T07:56:45;0.30;99.90
17845;DHT22;9047;53.486;10.218;2024-01-06T07:59:13;0.30;99.90
17845;DHT22;9047;53.486;10.218;2024-01-06T08:01:40;0.30;99.90
17845;DHT22;9047;53.486;10.218;2024-01-06T08:04:08;0.30;99.90
17845;DHT22;9047;53.486;10.218;2024-01-06T08:06:37;0.30;99.90
17845;DHT22;9047;53.486;10.218;2024-01-06T08:09:04;0.30;99.90
17845;DHT22;9047;53.486;10.218;2024-01-06T08:11:31;0.30;99.90
17845;DHT22;9047;53.486;10.218;2024-01-06T08:13:58;0.30;99.90
17845;DHT22;9047;53.486;10.218;2024-01-06T08:16:25;0.30;99.90
17845;DHT22;9047;53.486;10.218;2024-01-06T08:18:52;0.30;99.90
17845;DHT22;9047;53.486;10.218;2024-01-06T08:21:19;0.40;99.90
17845;DHT22;9047;53.486;10.218;2024-01-06T08:23:47;0.40;99.90
17845;DHT22;9047;53.486;10.218;2024-01-06T08:26:14;0.30;99.90
17845;DHT22;9047;53.486;10.218;2024-01-06T08:28:41;0.30;99.90
17845;DHT22;9047;53.486;10.218;2024-01-06T08:31:08;0.40;99.90
17845;DHT22;9047;53.486;10.218;2024-01-06T08:33:35;0.40;99.90
17845;DHT22;9047;53.486;10.218;2024-01-06T08:36:02;0.40;99.90
17845;DHT22;9047;53.486;10.218;2024-01-06T08:38:29;0.30;99.90
17845;DHT22;9047;53.486;10.218;2024-01-06T08:40:57;0.40;99.90
17845;DHT22;9047;53.486;10.218;2024-01-06T08:43:25;0.40;99.90
17845;DHT22;9047;53.486;10.218;2024-01-06T08:45:52;0.40;99.90
17845;DHT22;9047;53.486;10.218;2024-01-06T08:48:19;0.50;99.90
17845;DHT22;9047;53.486;10.218;2024-01-06T08:50:48;0.40;99.90
17845;DHT22;9047;53.486;10.218;2024-01-06T08:53:17;0.50;99.90
17845;DHT22;9047;53.486;10.218;2024-01-06T08:55:44;0.50;99.90
17845;DHT22;9047;53.486;10.218;2024-01-06T08:58:12;0.50;99.90
17845;DHT22;9047;53.486;10.218;2024-01-06T09:00:39;0.50;99.90
17845;DHT22;9047;53.486;10.218;2024-01-06T09:03:06;0.50;99.90
17845;DHT22;9047;53.486;10.218;2024-01-06T09:05:35;0.50;99.90
17845;DHT22;9047;53.486;10.218;2024-01-06T09:08:02;0.60;99.90
17845;DHT22;9047;53.486;10.218;2024-01-06T09:10:29;0.60;99.90
17845;DHT22;9047;53.486;10.218;2024-01-06T09:12:55;0.60;99.90
17845;DHT22;9047;53.486;10.218;2024-01-06T09:15:23;0.60;99.90
17845;DHT22;9047;53.486;10.218;2024-01-06T09:17:50;0.70;99.90
17845;DHT22;9047;53.486;10.218;2024-01-06T09:20:18;0.70;99.90
17845;DHT22;9047;53.486;10.218;2024-01-06T09:22:48;0.70;99.90
17845;DHT22;9047;53.486;10.218;2024-01-06T09:25:15;0.70;99.90
17845;DHT22;9047;53.486;10.218;2024-01-06T09:27:43;0.70;99.90
17845;DHT22;9047;53.486;10.218;2024-01-06T09:30:11;0.70;99.90
17845;DHT22;9047;53.486;10.218;2024-01-06T09:32:39;0.70;99.90
17845;DHT22;9047;53.486;10.218;2024-01-06T09:35:07;0.70;99.90
17845;DHT22;9047;53.486;10.218;2024-01-06T09:37:34;0.70;99.90
17845;DHT22;9047;53.486;10.218;2024-01-06T09:40:00;0.70;99.90
17845;DHT22;9047;53.486;10.218;2024-01-06T09:42:27;0.80;99.90
17845;DHT22;9047;53.486;10.218;2024-01-06T09:44:54;0.80;99.90
17845;DHT22;9047;53.486;10.218;2024-01-06T09:47:25;0.80;99.90
17845;DHT22;9047;53.486;10.218;2024-01-06T09:49:59;0.80;99.90
17845;DHT22;9047;53.486;10.218;2024-01-06T09:52:27;0.80;99.90
17845;DHT22;9047;53.486;10.218;2024-01-06T09:55:00;0.80;99.90
17845;DHT22;9047;53.486;10.218;2024-01-06T09:57:29;0.80;99.90
17845;DHT22;9047;53.486;10.218;2024-01-06T09:59:56;0.80;99.90
17845;DHT22;9047;53.486;10.218;2024-01-06T10:02:24;0.90;99.90
17845;DHT22;9047;53.486;10.218;2024-01-06T10:04:51;0.90;99.90
17845;DHT22;9047;53.486;10.218;2024-01-06T10:07:20;0.90;99.90
17845;DHT22;9047;53.486;10.218;2024-01-06T10:09:47;0.90;99.90
17845;DHT22;9047;53.486;10.218;2024-01-06T10:12:23;0.90;99.90
17845;DHT22;9047;53.486;10.218;2024-01-06T10:14:50;0.90;99.90
17845;DHT22;9047;53.486;10.218;2024-01-06T10:17:17;1.00;99.90
17845;DHT22;9047;53.486;10.218;2024-01-06T10:19:45;1.00;99.90
17845;DHT22;9047;53.486;10.218;2024-01-06T10:22:13;0.90;99.90
17845;DHT22;9047;53.486;10.218;2024-01-06T10:24:43;1.00;99.90
17845;DHT22;9047;53.486;10.218;2024-01-06T10:27:10;1.00;99.90
17845;DHT22;9047;53.486;10.218;2024-01-06T10:29:37;1.00;99.90
17845;DHT22;9047;53.486;10.218;2024-01-06T10:32:04;1.10;99.90
17845;DHT22;9047;53.486;10.218;2024-01-06T10:34:34;1.10;99.90
17845;DHT22;9047;53.486;10.218;2024-01-06T10:37:02;1.10;99.90
17845;DHT22;9047;53.486;10.218;2024-01-06T10:39:31;1.10;99.90
17845;DHT22;9047;53.486;10.218;2024-01-06T10:42:01;1.10;99.90
17845;DHT22;9047;53.486;10.218;2024-01-06T10:44:29;1.20;99.90
17845;DHT22;9047;53.486;10.218;2024-01-06T10:46:59;1.10;99.90
17845;DHT22;9047;53.486;10.218;2024-01-06T10:49:30;1.10;99.90
17845;DHT22;9047;53.486;10.218;2024-01-06T10:51:58;1.00;99.90
17845;DHT22;9047;53.486;10.218;2024-01-06T10:54:28;1.00;99.90
17845;DHT22;9047;53.486;10.218;2024-01-06T10:56:57;1.10;99.90
17845;DHT22;9047;53.486;10.218;2024-01-06T10:59:26;1.00;99.90
17845;DHT22;9047;53.486;10.218;2024-01-06T11:01:56;1.00;99.90
17845;DHT22;9047;53.486;10.218;2024-01-06T11:04:25;1.00;99.90
17845;DHT22;9047;53.486;10.218;2024-01-06T11:06:52;1.10;99.90
17845;DHT22;9047;53.486;10.218;2024-01-06T11:09:24;1.10;99.90
17845;DHT22;9047;53.486;10.218;2024-01-06T11:11:53;1.10;99.90
17845;DHT22;9047;53.486;10.218;2024-01-06T11:14:23;1.10;99.90
17845;DHT22;9047;53.486;10.218;2024-01-06T11:16:52;1.10;99.90
17845;DHT22;9047;53.486;10.218;2024-01-06T11:19:44;1.10;99.90
17845;DHT22;9047;53.486;10.218;2024-01-06T11:22:28;1.20;99.90
17845;DHT22;9047;53.486;10.218;2024-01-06T11:25:03;1.20;99.90
17845;DHT22;9047;53.486;10.218;2024-01-06T11:27:31;1.10;99.90
17845;DHT22;9047;53.486;10.218;2024-01-06T11:30:02;1.20;99.90
17845;DHT22;9047;53.486;10.218;2024-01-06T11:32:33;1.20;99.90
17845;DHT22;9047;53.486;10.218;2024-01-06T11:35:13;1.10;99.90
17845;DHT22;9047;53.486;10.218;2024-01-06T11:37:54;1.10;99.90
17845;DHT22;9047;53.486;10.218;2024-01-06T11:40:24;1.10;99.90
17845;DHT22;9047;53.486;10.218;2024-01-06T11:43:03;1.10;99.90
17845;DHT22;9047;53.486;10.218;2024-01-06T11:45:31;1.10;99.90
17845;DHT22;9047;53.486;10.218;2024-01-06T11:48:01;1.00;99.90
17845;DHT22;9047;53.486;10.218;2024-01-06T11:50:32;1.00;99.90
17845;DHT22;9047;53.486;10.218;2024-01-06T11:52:59;1.10;99.90
17845;DHT22;9047;53.486;10.218;2024-01-06T11:55:27;1.10;99.90
17845;DHT22;9047;53.486;10.218;2024-01-06T11:57:55;1.10;99.90
17845;DHT22;9047;53.486;10.218;2024-01-06T12:00:25;1.10;99.90
17845;DHT22;9047;53.486;10.218;2024-01-06T12:02:56;1.10;99.90
17845;DHT22;9047;53.486;10.218;2024-01-06T12:05:31;1.10;99.90
17845;DHT22;9047;53.486;10.218;2024-01-06T12:08:00;1.10;99.90
17845;DHT22;9047;53.486;10.218;2024-01-06T12:10:30;1.10;99.90
17845;DHT22;9047;53.486;10.218;2024-01-06T12:12:59;1.10;99.90
17845;DHT22;9047;53.486;10.218;2024-01-06T12:15:26;1.10;99.90
17845;DHT22;9047;53.486;10.218;2024-01-06T12:17:54;1.10;99.90
17845;DHT22;9047;53.486;10.218;2024-01-06T12:20:32;1.10;99.90
17845;DHT22;9047;53.486;10.218;2024-01-06T12:22:59;1.10;99.90
17845;DHT22;9047;53.486;10.218;2024-01-06T12:25:28;1.10;99.90
17845;DHT22;9047;53.486;10.218;2024-01-06T12:28:01;1.10;99.90
17845;DHT22;9047;53.486;10.218;2024-01-06T12:30:28;1.00;99.90
17845;DHT22;9047;53.486;10.218;2024-01-06T12:32:56;1.10;99.90
17845;DHT22;9047;53.486;10.218;2024-01-06T12:35:24;1.10;99.90
17845;DHT22;9047;53.486;10.218;2024-01-06T12:37:52;1.00;99.90
17845;DHT22;9047;53.486;10.218;2024-01-06T12:40:20;1.00;99.90
17845;DHT22;9047;53.486;10.218;2024-01-06T12:42:47;1.00;99.90
17845;DHT22;9047;53.486;10.218;2024-01-06T12:45:14;1.00;99.90
17845;DHT22;9047;53.486;10.218;2024-01-06T12:47:42;1.00;99.90
17845;DHT22;9047;53.486;10.218;2024-01-06T12:50:09;1.00;99.90
17845;DHT22;9047;53.486;10.218;2024-01-06T12:52:36;1.00;99.90
17845;DHT22;9047;53.486;10.218;2024-01-06T12:55:06;1.10;99.90
17845;DHT22;9047;53.486;10.218;2024-01-06T12:57:34;1.00;99.90
17845;DHT22;9047;53.486;10.218;2024-01-06T13:00:01;1.00;99.90
17845;DHT22;9047;53.486;10.218;2024-01-06T13:02:28;1.00;99.90
17845;DHT22;9047;53.486;10.218;2024-01-06T13:04:55;1.00;99.90
17845;DHT22;9047;53.486;10.218;2024-01-06T13:07:22;1.00;99.90
17845;DHT22;9047;53.486;10.218;2024-01-06T13:09:49;1.00;99.90
17845;DHT22;9047;53.486;10.218;2024-01-06T13:12:18;1.00;99.90
17845;DHT22;9047;53.486;10.218;2024-01-06T13:14:45;1.00;99.90
17845;DHT22;9047;53.486;10.218;2024-01-06T13:17:13;1.00;99.90
17845;DHT22;9047;53.486;10.218;2024-01-06T13:19:41;1.00;99.90
17845;DHT22;9047;53.486;10.218;2024-01-06T13:22:09;0.90;99.90
17845;DHT22;9047;53.486;10.218;2024-01-06T13:24:38;0.90;99.90
17845;DHT22;9047;53.486;10.218;2024-01-06T13:27:07;0.80;99.90
17845;DHT22;9047;53.486;10.218;2024-01-06T13:29:43;0.90;99.90
17845;DHT22;9047;53.486;10.218;2024-01-06T13:32:10;0.80;99.90
17845;DHT22;9047;53.486;10.218;2024-01-06T13:34:39;0.80;99.90
17845;DHT22;9047;53.486;10.218;2024-01-06T13:37:07;0.80;99.90
17845;DHT22;9047;53.486;10.218;2024-01-06T13:39:39;0.80;99.90
17845;DHT22;9047;53.486;10.218;2024-01-06T13:42:06;0.70;99.90
17845;DHT22;9047;53.486;10.218;2024-01-06T13:44:33;0.80;99.90
17845;DHT22;9047;53.486;10.218;2024-01-06T13:47:07;0.70;99.90
17845;DHT22;9047;53.486;10.218;2024-01-06T13:49:37;0.70;99.90
17845;DHT22;9047;53.486;10.218;2024-01-06T13:52:04;0.70;99.90
17845;DHT22;9047;53.486;10.218;2024-01-06T13:54:33;0.70;99.90
17845;DHT22;9047;53.486;10.218;2024-01-06T13:57:00;0.70;99.90
17845;DHT22;9047;53.486;10.218;2024-01-06T13:59:31;0.70;99.90
17845;DHT22;9047;53.486;10.218;2024-01-06T14:01:58;0.70;99.90
17845;DHT22;9047;53.486;10.218;2024-01-06T14:04:27;0.70;99.90
17845;DHT22;9047;53.486;10.218;2024-01-06T14:06:54;0.70;99.90
17845;DHT22;9047;53.486;10.218;2024-01-06T14:09:27;0.60;99.90
17845;DHT22;9047;53.486;10.218;2024-01-06T14:11:54;0.60;99.90
17845;DHT22;9047;53.486;10.218;2024-01-06T14:14:23;0.70;99.90
17845;DHT22;9047;53.486;10.218;2024-01-06T14:16:50;0.70;99.90
17845;DHT22;9047;53.486;10.218;2024-01-06T14:19:17;0.60;99.90
17845;DHT22;9047;53.486;10.218;2024-01-06T14:21:45;0.70;99.90
17845;DHT22;9047;53.486;10.218;2024-01-06T14:24:13;0.80;99.90
17845;DHT22;9047;53.486;10.218;2024-01-06T14:26:40;0.70;99.90
17845;DHT22;9047;53.486;10.218;2024-01-06T14:29:07;0.70;99.90
17845;DHT22;9047;53.486;10.218;2024-01-06T14:31:34;0.60;99.90
17845;DHT22;9047;53.486;10.218;2024-01-06T14:34:01;0.60;99.90
17845;DHT22;9047;53.486;10.218;2024-01-06T14:36:28;0.60;99.90
17845;DHT22;9047;53.486;10.218;2024-01-06T14:38:57;0.50;99.90
17845;DHT22;9047;53.486;10.218;2024-01-06T14:41:27;0.50;99.90
17845;DHT22;9047;53.486;10.218;2024-01-06T14:43:54;0.50;99.90
17845;DHT22;9047;53.486;10.218;2024-01-06T14:46:21;0.50;99.90
17845;DHT22;9047;53.486;10.218;2024-01-06T14:48:47;0.50;99.90
17845;DHT22;9047;53.486;10.218;2024-01-06T14:51:17;0.50;99.90
17845;DHT22;9047;53.486;10.218;2024-01-06T14:53:44;0.50;99.90
17845;DHT22;9047;53.486;10.218;2024-01-06T14:56:12;0.50;99.90
17845;DHT22;9047;53.486;10.218;2024-01-06T14:58:41;0.40;99.90
17845;DHT22;9047;53.486;10.218;2024-01-06T15:01:08;0.40;99.90
17845;DHT22;9047;53.486;10.218;2024-01-06T15:03:34;0.40;99.90
17845;DHT22;9047;53.486;10.218;2024-01-06T15:06:01;0.30;99.90
17845;DHT22;9047;53.486;10.218;2024-01-06T15:08:29;0.30;99.90
17845;DHT22;9047;53.486;10.218;2024-01-06T15:10:56;0.30;99.90
17845;DHT22;9047;53.486;10.218;2024-01-06T15:13:25;0.20;99.90
17845;DHT22;9047;53.486;10.218;2024-01-06T15:15:53;0.20;99.90
17845;DHT22;9047;53.486;10.218;2024-01-06T15:18:20;0.10;99.90
17845;DHT22;9047;53.486;10.218;2024-01-06T15:20:47;0.10;99.90
17845;DHT22;9047;53.486;10.218;2024-01-06T15:23:14;0.10;99.90
17845;DHT22;9047;53.486;10.218;2024-01-06T15:25:41;0.00;99.90
17845;DHT22;9047;53.486;10.218;2024-01-06T15:28:08;0.00;99.90
17845;DHT22;9047;53.486;10.218;2024-01-06T15:30:37;0.00;99.90
17845;DHT22;9047;53.486;10.218;2024-01-06T15:33:04;-0.10;99.90
17845;DHT22;9047;53.486;10.218;2024-01-06T15:35:31;-0.10;99.90
17845;DHT22;9047;53.486;10.218;2024-01-06T15:37:58;-0.10;99.90
17845;DHT22;9047;53.486;10.218;2024-01-06T15:40:26;-0.10;99.90
17845;DHT22;9047;53.486;10.218;2024-01-06T15:42:55;-0.10;99.90
17845;DHT22;9047;53.486;10.218;2024-01-06T15:45:22;-0.10;99.90
17845;DHT22;9047;53.486;10.218;2024-01-06T15:47:50;-0.10;99.90
17845;DHT22;9047;53.486;10.218;2024-01-06T15:50:17;-0.10;99.90